ADDS TAF Board (Experimental) INFO Settings
IDs: Format: Expanded Condensed

KLAX - Los Angeles Intl, CA, US

Issued at 0345 UTC 29 May 2015
Updated at: 0406 UTC 29 May 2015
Time0353Z 29/05Z 29/06Z 29/07Z 29/08Z 29/09Z 29/10Z 29/11Z 29/12Z 29/13Z 29/14Z 29/15Z 29/16Z 29/17Z
Type OBS PRVL PRVL PRVL PRVL PRVL PRVL PRVL PRVL PRVL PRVL PRVL PRVL PRVL
VIS 10 >6 >6 >6 >6 5 5 5 5 5 5 6 6 6
CIG 7 9 9 9 9 8 8 8 8 8 8 12 12 12
Cover OVC OVC OVC OVC OVC OVC OVC OVC OVC OVC OVC OVC OVC OVC
FltCat IFR IFR IFR IFR IFR IFR IFR IFR IFR IFR IFR MVFR MVFR MVFR
WX -- -- -- -- -- BR BR BR BR BR BR HZ HZ HZ
WDir 270 270 270 270 270 VRB VRB VRB VRB VRB VRB 230 230 230
WSpd 7 8 8 8 8 3 3 3 3 3 3 5 5 5
WGst -- -- -- -- -- -- -- -- -- -- -- -- -- --
R06/24
XWnd 1 1 1 1 1 VRB VRB VRB VRB VRB VRB -3 -3 -3
HWnd -7 -8 -8 -8 -8 VRB VRB VRB VRB VRB VRB -4 -4 -4
R07/25
XWnd 1 1 1 1 1 VRB VRB VRB VRB VRB VRB -3 -3 -3
HWnd -7 -8 -8 -8 -8 VRB VRB VRB VRB VRB VRB -4 -4 -4

NOTE: TEMPO conditions in [brackets]. Keep in mind TEMPO conditions might be better (lower impact) than prevailing conditions.

Raw TAF
KLAX 290345Z 2904/3006 27008KT P6SM OVC009
  FM290900 VRB03KT 5SM BR OVC008
  FM291500 23005KT 6SM HZ OVC012
  FM291900 25007KT P6SM SKC
  FM292100 25011KT P6SM SKC
  FM300200 25008KT P6SM SCT012
  FM300400 25006KT P6SM BKN010


Raw METAR
KLAX 290353Z 27007KT 10SM OVC007 15/13 A2995 RMK AO2 SLP140 T01500133
KLAX 290327Z 27008KT 10SM OVC009 15/13 A2994 RMK AO2
KLAX 290316Z 26008KT 10SM BKN011 16/13 A2994 RMK AO2
KLAX 290253Z 27008KT 10SM SCT011 SCT250 16/13 A2993 RMK AO2 SLP136 T01560133 55001
KLAX 290228Z 26010KT 10SM BKN011 BKN250 16/13 A2993 RMK AO2
KLAX 290153Z 26010KT 10SM FEW012 SCT250 17/13 A2992 RMK AO2 SLP131 T01670133

METAR Board
Radar Display
Forecast Discussion

TAF Board Legend

Potential Impact
Threat None Slight Moderate High
Visibility (sm) ≥5.1 5.1>X≥3 3>X≥1 <1
Ceiling (100 ft) ≥30.1 30.1>X≥10 10>X≥5 <5
Wind Speed (kt) <10 10≤X<20 20≤X<30 ≥30
Wind Gust (kt) <15 15≤X<25 25≤X<35 ≥35
Weather No Wx Reported VCTS,-TS,-FZRA,SN TS,FZRA +TS,+FZRA,+SN